createdAt,value
2024-05-09T00:00:40.936Z,6.82
2024-05-09T00:03:10.255Z,6.80
2024-05-09T00:05:41.720Z,6.90
2024-05-09T00:08:09.879Z,5.72
2024-05-09T00:10:39.151Z,7.47
2024-05-09T00:13:08.043Z,6.72
2024-05-09T00:15:36.352Z,7.35
2024-05-09T00:18:05.240Z,6.20
2024-05-09T00:20:38.344Z,7.22
2024-05-09T00:23:09.170Z,6.95
2024-05-09T00:25:37.277Z,6.45
2024-05-09T00:28:04.811Z,6.65
2024-05-09T00:30:35.428Z,7.00
2024-05-09T00:33:06.263Z,7.50
2024-05-09T00:35:34.954Z,7.10
2024-05-09T00:38:02.590Z,7.60
2024-05-09T00:40:39.611Z,7.18
2024-05-09T00:43:10.115Z,7.27
2024-05-09T00:45:37.311Z,6.15
2024-05-09T00:48:07.808Z,7.20
2024-05-09T00:50:38.820Z,7.43
2024-05-09T00:53:11.708Z,7.22
2024-05-09T00:55:39.751Z,7.13
2024-05-09T00:58:09.747Z,6.38
2024-05-09T01:00:40.022Z,7.07
2024-05-09T01:03:13.211Z,6.05
2024-05-09T01:05:42.414Z,6.95
2024-05-09T01:08:10.881Z,7.20
2024-05-09T01:10:38.835Z,7.53
2024-05-09T01:13:07.515Z,6.55
2024-05-09T01:15:35.803Z,7.38
2024-05-09T01:18:07.776Z,7.70
2024-05-09T01:20:41.580Z,7.53
2024-05-09T01:23:12.033Z,7.55
2024-05-09T01:25:39.719Z,7.07
2024-05-09T01:28:07.523Z,6.85
2024-05-09T01:30:37.185Z,7.80
2024-05-09T01:33:07.550Z,7.20
2024-05-09T01:35:36.968Z,7.32
2024-05-09T01:38:04.798Z,7.30
2024-05-09T01:40:38.026Z,7.57
2024-05-09T01:43:08.315Z,7.75
2024-05-09T01:45:36.062Z,7.70
2024-05-09T01:48:03.843Z,7.25
2024-05-09T01:53:01.880Z,7.70
2024-05-09T01:55:29.316Z,7.88
2024-05-09T01:57:56.706Z,8.30
2024-05-09T02:00:36.813Z,7.10
2024-05-09T02:03:15.330Z,8.20
2024-05-09T02:05:50.132Z,8.20
2024-05-09T02:08:19.540Z,8.25
2024-05-09T02:10:48.172Z,7.67
2024-05-09T02:13:16.062Z,7.53
2024-05-09T02:15:43.700Z,8.18
2024-05-09T02:18:11.715Z,7.93
2024-05-09T02:20:41.605Z,7.85
2024-05-09T02:23:09.955Z,8.00
2024-05-09T02:25:37.539Z,7.72
2024-05-09T02:28:05.039Z,7.63
2024-05-09T02:30:39.359Z,7.53
2024-05-09T02:33:13.328Z,7.80
2024-05-09T02:35:43.024Z,7.40
2024-05-09T02:38:11.310Z,7.80
2024-05-09T02:40:40.048Z,7.63
2024-05-09T02:43:09.664Z,8.07
2024-05-09T02:45:38.212Z,7.65
2024-05-09T02:48:06.090Z,7.67
2024-05-09T02:50:38.339Z,8.13
2024-05-09T02:53:14.076Z,7.43
2024-05-09T02:55:42.643Z,7.57
2024-05-09T02:58:10.765Z,7.70
2024-05-09T03:00:41.281Z,8.10
2024-05-09T03:03:14.604Z,7.53
2024-05-09T03:05:45.981Z,7.35
2024-05-09T03:08:14.081Z,8.25
2024-05-09T03:10:41.676Z,7.78
2024-05-09T03:13:14.570Z,7.70
2024-05-09T03:15:43.630Z,7.60
2024-05-09T03:18:11.605Z,8.13
2024-05-09T03:20:40.080Z,8.27
2024-05-09T03:23:09.296Z,7.28
2024-05-09T03:25:37.670Z,8.63
2024-05-09T03:28:05.180Z,8.43
2024-05-09T03:30:40.031Z,7.57
2024-05-09T03:33:19.167Z,8.43
2024-05-09T03:35:48.542Z,8.40
2024-05-09T03:38:16.488Z,8.20
2024-05-09T03:40:48.711Z,7.95
2024-05-09T03:43:16.855Z,7.82
2024-05-09T03:45:44.313Z,8.30
2024-05-09T03:48:12.151Z,8.43
2024-05-09T03:50:39.859Z,8.07
2024-05-09T03:53:10.516Z,7.65
2024-05-09T03:55:38.031Z,8.45
2024-05-09T03:58:07.714Z,7.88
2024-05-09T04:00:38.748Z,7.80
2024-05-09T04:03:09.950Z,8.23
2024-05-09T04:05:41.031Z,8.48
2024-05-09T04:08:09.494Z,7.85
2024-05-09T04:10:38.698Z,7.85
2024-05-09T04:13:06.320Z,8.38
2024-05-09T04:15:33.728Z,8.80
2024-05-09T04:18:01.971Z,8.82
2024-05-09T04:20:37.568Z,8.75
2024-05-09T04:23:08.774Z,7.88
2024-05-09T04:25:37.917Z,7.90
2024-05-09T04:28:05.872Z,8.30
2024-05-09T04:30:38.293Z,7.85
2024-05-09T04:33:10.279Z,8.00
2024-05-09T04:35:41.942Z,7.40
2024-05-09T04:38:09.635Z,7.70
2024-05-09T04:40:37.643Z,7.93
2024-05-09T04:43:06.226Z,7.63
2024-05-09T04:45:33.993Z,8.07
2024-05-09T04:48:02.176Z,8.18
2024-05-09T04:50:36.352Z,8.60
2024-05-09T04:53:07.493Z,8.03
2024-05-09T04:55:36.280Z,8.57
2024-05-09T04:58:03.718Z,8.90
2024-05-09T05:00:36.516Z,7.30
2024-05-09T05:03:13.999Z,8.73
2024-05-09T05:05:44.780Z,9.13
2024-05-09T05:08:13.983Z,8.63
2024-05-09T05:10:42.152Z,9.40
2024-05-09T05:13:17.690Z,9.60
2024-05-09T05:15:58.622Z,9.07
2024-05-09T05:18:27.712Z,9.73
2024-05-09T05:20:58.826Z,10.57
2024-05-09T05:23:26.485Z,10.20
2024-05-09T05:25:54.540Z,10.50
2024-05-09T05:28:22.448Z,10.95
2024-05-09T05:30:50.253Z,10.77
2024-05-09T05:33:19.238Z,11.80
2024-05-09T05:35:47.234Z,12.43
2024-05-09T05:38:14.821Z,12.65
2024-05-09T05:40:42.378Z,12.77
2024-05-09T05:43:15.677Z,12.20
2024-05-09T05:45:44.216Z,12.52
2024-05-09T05:48:11.795Z,10.77
2024-05-09T05:50:39.388Z,13.63
2024-05-09T05:53:10.293Z,12.43
2024-05-09T05:55:38.376Z,13.30
2024-05-09T05:58:06.126Z,10.70
2024-05-09T06:00:38.524Z,13.40
2024-05-09T06:03:08.613Z,13.45
2024-05-09T06:05:37.409Z,13.88
2024-05-09T06:08:05.215Z,13.67
2024-05-09T06:10:38.288Z,13.95
2024-05-09T06:13:08.127Z,21.25
2024-05-09T06:15:35.108Z,13.77
2024-05-09T06:18:04.640Z,13.55
2024-05-09T06:20:36.421Z,12.93
2024-05-09T06:23:06.700Z,13.55
2024-05-09T06:25:34.923Z,13.50
2024-05-09T06:28:02.578Z,12.60
2024-05-09T06:30:38.014Z,14.27
2024-05-09T06:33:08.826Z,13.30
2024-05-09T06:35:36.675Z,12.20
2024-05-09T06:38:04.361Z,12.93
2024-05-09T06:40:37.468Z,14.27
2024-05-09T06:43:13.957Z,13.40
2024-05-09T06:45:41.270Z,12.23
2024-05-09T06:48:09.868Z,13.45
2024-05-09T06:50:39.329Z,10.80
2024-05-09T06:53:07.970Z,11.80
2024-05-09T06:55:36.013Z,12.13
2024-05-09T06:58:05.823Z,12.50
2024-05-09T07:00:38.899Z,13.18
2024-05-09T07:03:14.417Z,13.00
2024-05-09T07:05:44.052Z,12.70
2024-05-09T07:08:11.372Z,12.82
2024-05-09T07:10:38.631Z,12.50
2024-05-09T07:13:13.374Z,12.95
2024-05-09T07:15:41.612Z,13.30
2024-05-09T07:18:13.064Z,11.90
2024-05-09T07:20:40.942Z,12.80
2024-05-09T07:23:12.204Z,13.33
2024-05-09T07:25:40.403Z,12.80
2024-05-09T07:28:15.004Z,14.02
2024-05-09T07:30:42.658Z,11.13
2024-05-09T07:33:09.834Z,12.85
2024-05-09T07:35:37.094Z,11.77
2024-05-09T07:38:04.724Z,11.60
2024-05-09T07:40:36.159Z,11.80
2024-05-09T07:43:05.102Z,10.70
2024-05-09T07:52:23.948Z,11.10
2024-05-09T07:53:38.498Z,10.63
2024-05-09T07:56:07.205Z,10.90
2024-05-09T07:58:34.905Z,10.65
2024-05-09T08:01:05.272Z,11.77
2024-05-09T08:03:34.377Z,10.38
2024-05-09T08:06:02.086Z,10.13
2024-05-09T08:08:29.331Z,10.27
2024-05-09T08:10:56.928Z,9.85
2024-05-09T08:13:24.430Z,7.30
2024-05-09T08:15:52.613Z,6.70
2024-05-09T08:18:20.432Z,9.52
2024-05-09T08:20:48.855Z,9.23
2024-05-09T08:23:15.909Z,9.43
2024-05-09T08:25:43.251Z,9.50
2024-05-09T08:28:11.523Z,10.30
2024-05-09T08:30:39.243Z,9.90
2024-05-09T08:33:07.741Z,9.73
2024-05-09T08:35:35.741Z,10.20
2024-05-09T08:38:03.876Z,10.02
2024-05-09T08:40:36.762Z,9.82
2024-05-09T08:43:11.311Z,9.93
2024-05-09T08:45:43.666Z,9.98
2024-05-09T08:48:13.886Z,10.98
2024-05-09T08:50:42.028Z,10.73
2024-05-09T08:53:09.526Z,9.80
2024-05-09T08:55:41.521Z,9.20
2024-05-09T08:58:18.418Z,9.70
2024-05-09T09:00:46.635Z,10.15
2024-05-09T09:03:27.580Z,8.90
2024-05-09T09:06:10.435Z,9.27
2024-05-09T09:08:39.257Z,9.40
2024-05-09T09:11:06.371Z,7.93
2024-05-09T09:13:33.807Z,9.48
2024-05-09T09:16:02.893Z,9.95
2024-05-09T09:18:31.049Z,9.70
2024-05-09T09:20:58.538Z,9.95
2024-05-09T09:23:30.202Z,9.32
2024-05-09T09:26:00.838Z,10.32
2024-05-09T09:28:28.253Z,11.43
2024-05-09T09:31:01.993Z,9.98
2024-05-09T09:33:32.883Z,10.43
2024-05-09T09:36:02.671Z,9.60
2024-05-09T09:38:31.555Z,10.48
2024-05-09T09:40:59.966Z,9.68
2024-05-09T09:43:27.766Z,10.00
2024-05-09T09:45:59.462Z,9.82
2024-05-09T09:48:27.320Z,9.80
2024-05-09T09:50:55.428Z,10.52
2024-05-09T09:53:23.794Z,10.48
2024-05-09T09:55:52.873Z,10.98
2024-05-09T09:58:20.388Z,9.98
2024-05-09T10:00:47.914Z,10.70
2024-05-09T10:03:15.464Z,11.07
2024-05-09T10:05:46.137Z,10.13
2024-05-09T10:08:16.698Z,10.48
2024-05-09T10:10:47.713Z,10.60
2024-05-09T10:13:15.711Z,10.85
2024-05-09T10:15:54.372Z,14.60
2024-05-09T10:18:28.050Z,9.98
2024-05-09T10:20:57.588Z,11.52
2024-05-09T10:23:36.353Z,10.00
2024-05-09T10:26:06.210Z,10.20
2024-05-09T10:28:36.768Z,10.43
2024-05-09T10:31:10.773Z,11.43
2024-05-09T10:33:49.590Z,10.48
2024-05-09T10:36:25.831Z,10.93
2024-05-09T10:38:54.285Z,10.60
2024-05-09T10:41:22.655Z,9.55
2024-05-09T10:43:51.309Z,10.80
2024-05-09T10:46:19.413Z,9.73
2024-05-09T10:48:47.823Z,10.68
2024-05-09T10:51:15.405Z,9.60
2024-05-09T10:53:43.320Z,10.88
2024-05-09T10:56:11.071Z,10.63
2024-05-09T10:58:38.264Z,10.32
2024-05-09T11:01:07.260Z,11.20
2024-05-09T11:03:35.892Z,11.10
2024-05-09T11:06:03.622Z,10.15
2024-05-09T11:08:32.805Z,10.00
2024-05-09T11:11:00.517Z,9.45
2024-05-09T11:13:31.953Z,11.00
2024-05-09T11:16:00.140Z,10.13
2024-05-09T11:18:31.752Z,12.02
2024-05-09T11:21:01.938Z,10.90
2024-05-09T11:23:32.232Z,10.60
2024-05-09T11:25:59.426Z,11.30
2024-05-09T11:28:28.696Z,11.70
2024-05-09T11:31:06.737Z,12.27
2024-05-09T11:33:37.704Z,11.93
2024-05-09T11:36:05.429Z,11.45
2024-05-09T11:38:32.946Z,12.13
2024-05-09T11:41:00.367Z,12.77
2024-05-09T11:43:27.386Z,11.77
2024-05-09T11:45:56.082Z,11.00
2024-05-09T11:48:23.594Z,11.17
2024-05-09T11:50:50.673Z,10.68
2024-05-09T11:53:18.098Z,11.60
2024-05-09T11:55:45.133Z,11.35
2024-05-09T11:58:13.759Z,11.32
2024-05-09T12:00:41.275Z,10.73
2024-05-09T12:03:08.818Z,10.77
2024-05-09T12:05:36.374Z,11.93
2024-05-09T12:08:03.736Z,12.20
2024-05-09T12:10:34.296Z,12.38
2024-05-09T12:13:05.249Z,11.93
2024-05-09T12:15:37.546Z,10.70
2024-05-09T12:18:06.500Z,10.65
2024-05-09T12:20:38.376Z,11.25
2024-05-09T12:23:09.389Z,11.90
2024-05-09T12:25:37.970Z,11.03
2024-05-09T12:28:05.470Z,10.27
2024-05-09T12:30:37.571Z,11.23
2024-05-09T12:33:12.416Z,11.27
2024-05-09T12:35:43.502Z,10.65
2024-05-09T12:38:14.216Z,10.40
2024-05-09T12:40:41.608Z,10.27
2024-05-09T12:43:10.285Z,10.40
2024-05-09T12:45:38.640Z,10.90
2024-05-09T12:48:08.517Z,11.90
2024-05-09T12:50:36.925Z,12.00
2024-05-09T12:53:05.231Z,11.57
2024-05-09T12:55:41.053Z,10.27
2024-05-09T12:58:17.441Z,12.65
2024-05-09T13:00:45.559Z,11.27
2024-05-09T13:03:13.415Z,12.30
2024-05-09T13:05:46.527Z,10.75
2024-05-09T13:08:13.845Z,10.77
2024-05-09T13:10:41.432Z,11.60
2024-05-09T13:13:11.769Z,10.13
2024-05-09T13:15:39.277Z,11.60
2024-05-09T13:18:07.096Z,9.93
2024-05-09T13:20:36.204Z,10.68
2024-05-09T13:23:05.501Z,10.77
2024-05-09T13:25:34.815Z,10.60
2024-05-09T13:28:02.654Z,11.10
2024-05-09T13:30:38.546Z,11.27
2024-05-09T13:33:09.414Z,10.80
2024-05-09T13:35:36.701Z,10.98
2024-05-09T13:38:04.939Z,11.15
2024-05-09T13:40:35.104Z,10.93
2024-05-09T13:43:06.650Z,11.32
2024-05-09T13:45:34.571Z,12.80
2024-05-09T13:48:03.973Z,11.50
2024-05-09T13:50:35.486Z,10.90
2024-05-09T13:53:06.723Z,10.80
2024-05-09T13:55:35.596Z,11.82
2024-05-09T13:58:03.339Z,10.57
2024-05-09T14:00:42.636Z,10.77
2024-05-09T14:03:16.023Z,15.82
2024-05-09T14:05:43.898Z,11.30
2024-05-09T14:08:12.467Z,11.30
2024-05-09T14:10:44.395Z,10.63
2024-05-09T14:13:12.913Z,10.38
2024-05-09T14:15:40.369Z,10.60
2024-05-09T14:18:10.180Z,11.13
2024-05-09T14:20:39.370Z,11.00
2024-05-09T14:23:06.322Z,10.77
2024-05-09T14:25:38.674Z,10.27
2024-05-09T14:28:08.988Z,10.25
2024-05-09T14:30:38.041Z,10.20
2024-05-09T14:33:07.685Z,10.18
2024-05-09T14:35:37.799Z,11.25
2024-05-09T14:38:05.698Z,11.32
2024-05-09T14:43:04.165Z,10.10
2024-05-09T14:45:32.424Z,10.02
2024-05-09T14:47:59.702Z,10.13
2024-05-09T14:50:34.727Z,9.68
2024-05-09T14:53:06.494Z,9.88
2024-05-09T14:55:39.830Z,10.47
2024-05-09T14:58:08.781Z,10.68
2024-05-09T15:00:41.723Z,11.05
2024-05-09T15:03:12.400Z,11.50
2024-05-09T15:05:40.117Z,11.80
2024-05-09T15:08:07.987Z,12.30
2024-05-09T15:10:36.699Z,12.05
2024-05-09T15:13:05.338Z,11.95
2024-05-09T15:15:33.124Z,12.63
2024-05-09T15:18:00.431Z,11.93
2024-05-09T15:20:34.455Z,12.37
2024-05-09T15:23:04.730Z,12.68
2024-05-09T15:25:33.069Z,13.10
2024-05-09T15:28:00.266Z,12.80
2024-05-09T15:30:31.745Z,13.90
2024-05-09T15:33:01.325Z,13.27
2024-05-09T15:35:29.121Z,13.73
2024-05-09T15:37:56.964Z,12.95
2024-05-09T15:40:34.890Z,13.13
2024-05-09T15:43:06.991Z,12.43
2024-05-09T15:45:34.792Z,13.37
2024-05-09T15:48:03.429Z,13.90
2024-05-09T15:50:37.629Z,13.77
2024-05-09T15:53:12.282Z,13.60
2024-05-09T15:55:40.188Z,13.40
2024-05-09T15:58:07.796Z,13.73
2024-05-09T16:00:39.417Z,13.25
2024-05-09T16:03:14.242Z,14.27
2024-05-09T16:05:44.500Z,14.00
2024-05-09T16:08:12.879Z,14.10
2024-05-09T16:10:45.893Z,14.77
2024-05-09T16:13:14.130Z,14.07
2024-05-09T16:15:41.367Z,13.77
2024-05-09T16:18:08.844Z,13.40
2024-05-09T16:20:40.181Z,16.08
2024-05-09T16:23:10.189Z,15.37
2024-05-09T16:25:37.938Z,13.43
2024-05-09T16:28:08.829Z,14.40
2024-05-09T16:30:41.237Z,15.07
2024-05-09T16:33:09.294Z,14.77
2024-05-09T16:35:37.410Z,14.77
2024-05-09T16:38:05.976Z,14.35
2024-05-09T16:40:38.475Z,15.48
2024-05-09T16:43:09.280Z,16.25
2024-05-09T16:45:37.708Z,14.38
2024-05-09T16:48:06.364Z,14.57
2024-05-09T16:50:35.542Z,15.65
2024-05-09T16:53:05.660Z,15.30
2024-05-09T16:55:34.002Z,16.67
2024-05-09T16:58:02.150Z,17.73
2024-05-09T17:00:39.208Z,15.00
2024-05-09T17:03:11.557Z,15.20
2024-05-09T17:05:39.782Z,15.35
2024-05-09T17:08:08.107Z,14.93
2024-05-09T17:10:36.456Z,14.35
2024-05-09T17:13:05.935Z,14.30
2024-05-09T17:15:35.185Z,15.23
2024-05-09T17:18:02.983Z,15.65
2024-05-09T17:20:34.602Z,14.70
2024-05-09T17:23:05.838Z,13.00
2024-05-09T17:25:33.921Z,14.33
2024-05-09T17:28:07.407Z,15.02
2024-05-09T17:30:45.043Z,13.57
2024-05-09T17:33:13.415Z,15.73
2024-05-09T17:35:41.457Z,15.02
2024-05-09T17:38:08.878Z,15.90
2024-05-09T17:40:37.942Z,13.98
2024-05-09T17:43:08.680Z,14.40
2024-05-09T17:45:38.963Z,16.88
2024-05-09T17:48:07.431Z,15.93
2024-05-09T17:50:37.207Z,15.67
2024-05-09T17:53:08.818Z,17.65
2024-05-09T17:55:36.526Z,16.02
2024-05-09T17:58:05.017Z,15.85
2024-05-09T18:00:38.567Z,15.10
2024-05-09T18:03:11.736Z,15.83
2024-05-09T18:05:40.618Z,16.20
2024-05-09T18:08:08.398Z,24.05
2024-05-09T18:10:38.647Z,22.15
2024-05-09T18:13:08.716Z,17.35
2024-05-09T18:15:36.433Z,15.93
2024-05-09T18:18:04.017Z,15.77
2024-05-09T18:20:40.370Z,16.92
2024-05-09T18:23:11.730Z,16.25
2024-05-09T18:25:39.207Z,16.38
2024-05-09T18:28:07.056Z,16.35
2024-05-09T18:30:36.684Z,17.20
2024-05-09T18:33:07.069Z,15.50
2024-05-09T18:35:36.104Z,14.95
2024-05-09T18:38:04.801Z,15.68
2024-05-09T18:40:36.064Z,16.05
2024-05-09T18:43:07.167Z,17.58
2024-05-09T18:45:37.484Z,16.30
2024-05-09T18:48:06.341Z,15.93
2024-05-09T18:50:37.947Z,15.90
2024-05-09T18:53:08.106Z,16.42
2024-05-09T18:55:35.816Z,17.65
2024-05-09T18:58:05.100Z,18.15
2024-05-09T19:00:36.508Z,17.17
2024-05-09T19:03:11.603Z,16.52
2024-05-09T19:05:41.795Z,17.20
2024-05-09T19:08:10.272Z,17.35
2024-05-09T19:10:38.856Z,16.27
2024-05-09T19:13:10.906Z,15.82
2024-05-09T19:15:41.068Z,15.75
2024-05-09T19:18:09.551Z,15.68
2024-05-09T19:20:37.678Z,15.82
2024-05-09T19:23:06.856Z,15.30
2024-05-09T19:25:35.995Z,15.48
2024-05-09T19:28:04.082Z,16.02
2024-05-09T19:30:38.608Z,15.43
2024-05-09T19:33:10.325Z,14.80
2024-05-09T19:35:38.920Z,14.82
2024-05-09T19:38:06.614Z,15.70
2024-05-09T19:40:35.079Z,16.50
2024-05-09T19:43:04.003Z,15.23
2024-05-09T19:45:33.375Z,15.38
2024-05-09T19:48:01.664Z,15.15
2024-05-09T19:50:36.717Z,14.70
2024-05-09T19:53:09.605Z,15.43
2024-05-09T19:55:37.267Z,15.05
2024-05-09T19:58:07.112Z,14.40
2024-05-09T20:00:38.014Z,14.80
2024-05-09T20:03:08.215Z,14.00
2024-05-09T20:05:36.958Z,14.65
2024-05-09T20:08:04.976Z,14.60
2024-05-09T20:10:34.680Z,13.77
2024-05-09T20:13:04.325Z,14.48
2024-05-09T20:15:34.097Z,15.55
2024-05-09T20:18:01.823Z,15.18
2024-05-09T20:20:37.095Z,14.18
2024-05-09T20:23:08.539Z,12.88
2024-05-09T20:25:35.919Z,13.85
2024-05-09T20:28:03.634Z,38.53
2024-05-09T20:30:33.162Z,16.85
2024-05-09T20:33:07.293Z,14.30
2024-05-09T20:35:35.722Z,14.82
2024-05-09T20:38:04.009Z,14.98
2024-05-09T20:40:35.645Z,14.48
2024-05-09T20:43:07.074Z,15.82
2024-05-09T20:45:35.147Z,16.15
2024-05-09T20:48:02.958Z,15.68
2024-05-09T20:50:37.427Z,17.40
2024-05-09T20:53:13.413Z,16.70
2024-05-09T20:55:42.183Z,16.77
2024-05-09T20:58:10.087Z,16.30
2024-05-09T21:00:40.945Z,15.93
2024-05-09T21:03:12.545Z,16.98
2024-05-09T21:05:41.070Z,17.23
2024-05-09T21:08:09.784Z,16.73
2024-05-09T21:10:37.705Z,17.88
2024-05-09T21:13:06.348Z,17.88
2024-05-09T21:15:35.097Z,18.33
2024-05-09T21:18:02.570Z,17.85
2024-05-09T21:20:32.920Z,17.67
2024-05-09T21:23:01.480Z,17.90
2024-05-09T21:25:29.515Z,18.27
2024-05-09T21:27:56.743Z,17.58
2024-05-09T21:30:33.150Z,17.27
2024-05-09T21:33:09.901Z,17.60
2024-05-09T21:35:38.820Z,17.67
2024-05-09T21:38:07.333Z,18.13
2024-05-09T21:40:36.525Z,18.23
2024-05-09T21:43:09.073Z,17.83
2024-05-09T21:45:37.400Z,18.75
2024-05-09T21:48:05.444Z,18.63
2024-05-09T21:50:39.593Z,18.98
2024-05-09T21:53:08.924Z,20.25
2024-05-09T21:55:36.343Z,19.38
2024-05-09T21:58:04.294Z,19.75
2024-05-09T22:00:36.526Z,20.02
2024-05-09T22:03:06.717Z,19.33
2024-05-09T22:05:34.627Z,19.85
2024-05-09T22:08:02.326Z,20.77
2024-05-09T22:10:34.398Z,19.77
2024-05-09T22:13:04.453Z,20.92
2024-05-09T22:15:37.427Z,21.10
2024-05-09T22:18:06.493Z,20.13
2024-05-09T22:20:37.808Z,20.33
2024-05-09T22:23:07.216Z,20.10
2024-05-09T22:25:34.891Z,20.88
2024-05-09T22:28:03.258Z,20.25
2024-05-09T22:30:37.020Z,20.35
2024-05-09T22:33:11.585Z,20.63
2024-05-09T22:35:40.416Z,20.98
2024-05-09T22:38:08.181Z,19.60
2024-05-09T22:40:45.908Z,19.98
2024-05-09T22:43:24.330Z,19.25
2024-05-09T22:45:56.988Z,20.10
2024-05-09T22:48:25.340Z,19.63
2024-05-09T22:50:53.913Z,19.42
2024-05-09T22:53:25.012Z,21.08
2024-05-09T22:55:52.663Z,15.88
2024-05-09T22:58:20.780Z,20.00
2024-05-09T23:00:48.411Z,20.25
2024-05-09T23:03:16.628Z,19.55
2024-05-09T23:05:44.132Z,19.58
2024-05-09T23:08:11.184Z,20.30
2024-05-09T23:10:38.801Z,20.50
2024-05-09T23:13:07.596Z,20.55
2024-05-09T23:15:35.822Z,20.38
2024-05-09T23:18:03.496Z,20.52
2024-05-09T23:20:37.054Z,20.48
2024-05-09T23:23:07.418Z,19.65
2024-05-09T23:25:35.058Z,19.67
2024-05-09T23:28:02.527Z,19.52
2024-05-09T23:30:37.324Z,19.63
2024-05-09T23:33:08.419Z,18.80
2024-05-09T23:35:35.792Z,19.20
2024-05-09T23:38:03.057Z,19.77
2024-05-09T23:40:37.965Z,19.95
2024-05-09T23:43:09.026Z,19.23
2024-05-09T23:45:36.936Z,18.65
2024-05-09T23:48:04.791Z,19.20
2024-05-09T23:50:36.182Z,19.00
2024-05-09T23:53:07.560Z,19.23
2024-05-09T23:55:36.286Z,19.23
2024-05-09T23:58:03.782Z,18.48
